sensor_id;sensor_type;location;lat;lon;timestamp;P1;durP1;ratioP1;P2;durP2;ratioP2
59512;SDS011;45330;51.634;5.562;2023-06-10T00:00:15;16.33;;;6.47;;
59512;SDS011;45330;51.634;5.562;2023-06-10T00:02:41;15.13;;;6.00;;
59512;SDS011;45330;51.634;5.562;2023-06-10T00:05:07;15.68;;;6.53;;
59512;SDS011;45330;51.634;5.562;2023-06-10T00:07:33;13.98;;;6.50;;
59512;SDS011;45330;51.634;5.562;2023-06-10T00:10:03;14.80;;;6.32;;
59512;SDS011;45330;51.634;5.562;2023-06-10T00:12:30;15.88;;;7.32;;
59512;SDS011;45330;51.634;5.562;2023-06-10T00:14:56;14.50;;;6.80;;
59512;SDS011;45330;51.634;5.562;2023-06-10T00:17:21;15.80;;;6.55;;
59512;SDS011;45330;51.634;5.562;2023-06-10T00:19:47;15.63;;;6.65;;
59512;SDS011;45330;51.634;5.562;2023-06-10T00:22:15;13.63;;;6.55;;
59512;SDS011;45330;51.634;5.562;2023-06-10T00:24:41;14.15;;;6.72;;
59512;SDS011;45330;51.634;5.562;2023-06-10T00:27:07;15.65;;;6.95;;
59512;SDS011;45330;51.634;5.562;2023-06-10T00:29:32;18.17;;;7.10;;
59512;SDS011;45330;51.634;5.562;2023-06-10T00:31:58;15.23;;;7.13;;
59512;SDS011;45330;51.634;5.562;2023-06-10T00:34:23;17.17;;;7.20;;
59512;SDS011;45330;51.634;5.562;2023-06-10T00:36:49;16.65;;;7.30;;
59512;SDS011;45330;51.634;5.562;2023-06-10T00:39:15;17.45;;;7.57;;
59512;SDS011;45330;51.634;5.562;2023-06-10T00:41:41;15.10;;;7.40;;
59512;SDS011;45330;51.634;5.562;2023-06-10T00:44:07;15.18;;;7.13;;
59512;SDS011;45330;51.634;5.562;2023-06-10T00:46:32;16.33;;;7.45;;
59512;SDS011;45330;51.634;5.562;2023-06-10T00:48:58;16.75;;;7.70;;
59512;SDS011;45330;51.634;5.562;2023-06-10T00:51:25;15.85;;;7.55;;
59512;SDS011;45330;51.634;5.562;2023-06-10T00:53:51;16.95;;;7.80;;
59512;SDS011;45330;51.634;5.562;2023-06-10T00:56:17;18.77;;;7.90;;
59512;SDS011;45330;51.634;5.562;2023-06-10T00:58:43;14.85;;;7.65;;
59512;SDS011;45330;51.634;5.562;2023-06-10T01:01:09;16.60;;;7.32;;
59512;SDS011;45330;51.634;5.562;2023-06-10T01:03:35;16.42;;;7.38;;
59512;SDS011;45330;51.634;5.562;2023-06-10T01:06:17;15.90;;;7.72;;
59512;SDS011;45330;51.634;5.562;2023-06-10T01:09:01;16.85;;;7.50;;
59512;SDS011;45330;51.634;5.562;2023-06-10T01:11:43;16.52;;;7.43;;
59512;SDS011;45330;51.634;5.562;2023-06-10T01:14:15;16.95;;;7.53;;
59512;SDS011;45330;51.634;5.562;2023-06-10T01:16:41;17.38;;;7.40;;
59512;SDS011;45330;51.634;5.562;2023-06-10T01:19:07;17.35;;;8.20;;
59512;SDS011;45330;51.634;5.562;2023-06-10T01:21:33;15.55;;;7.63;;
59512;SDS011;45330;51.634;5.562;2023-06-10T01:23:58;18.02;;;8.10;;
59512;SDS011;45330;51.634;5.562;2023-06-10T01:26:30;16.25;;;7.70;;
59512;SDS011;45330;51.634;5.562;2023-06-10T01:29:07;17.75;;;8.38;;
59512;SDS011;45330;51.634;5.562;2023-06-10T01:31:55;17.85;;;8.13;;
59512;SDS011;45330;51.634;5.562;2023-06-10T01:34:28;18.55;;;8.38;;
59512;SDS011;45330;51.634;5.562;2023-06-10T01:36:57;15.93;;;8.10;;
59512;SDS011;45330;51.634;5.562;2023-06-10T01:39:23;16.73;;;7.78;;
59512;SDS011;45330;51.634;5.562;2023-06-10T01:41:50;17.10;;;8.13;;
59512;SDS011;45330;51.634;5.562;2023-06-10T01:44:17;16.88;;;7.93;;
59512;SDS011;45330;51.634;5.562;2023-06-10T01:46:46;16.83;;;7.70;;
59512;SDS011;45330;51.634;5.562;2023-06-10T01:49:12;17.17;;;8.02;;
59512;SDS011;45330;51.634;5.562;2023-06-10T01:51:38;18.08;;;8.13;;
59512;SDS011;45330;51.634;5.562;2023-06-10T01:54:03;17.90;;;8.10;;
59512;SDS011;45330;51.634;5.562;2023-06-10T01:56:29;17.70;;;8.18;;
59512;SDS011;45330;51.634;5.562;2023-06-10T01:58:54;18.27;;;8.35;;
59512;SDS011;45330;51.634;5.562;2023-06-10T02:01:24;18.25;;;8.30;;
59512;SDS011;45330;51.634;5.562;2023-06-10T02:03:52;18.00;;;8.77;;
59512;SDS011;45330;51.634;5.562;2023-06-10T02:06:18;18.52;;;9.32;;
59512;SDS011;45330;51.634;5.562;2023-06-10T02:08:43;18.05;;;9.07;;
59512;SDS011;45330;51.634;5.562;2023-06-10T02:11:08;17.75;;;8.80;;
59512;SDS011;45330;51.634;5.562;2023-06-10T02:13:34;19.65;;;9.77;;
59512;SDS011;45330;51.634;5.562;2023-06-10T02:16:00;19.17;;;9.13;;
59512;SDS011;45330;51.634;5.562;2023-06-10T02:18:26;19.38;;;9.88;;
59512;SDS011;45330;51.634;5.562;2023-06-10T02:20:53;20.45;;;10.25;;
59512;SDS011;45330;51.634;5.562;2023-06-10T02:23:18;20.00;;;9.40;;
59512;SDS011;45330;51.634;5.562;2023-06-10T02:25:43;18.08;;;9.20;;
59512;SDS011;45330;51.634;5.562;2023-06-10T02:28:09;19.27;;;9.80;;
59512;SDS011;45330;51.634;5.562;2023-06-10T02:30:34;18.92;;;9.80;;
59512;SDS011;45330;51.634;5.562;2023-06-10T02:33:00;19.55;;;9.65;;
59512;SDS011;45330;51.634;5.562;2023-06-10T02:35:26;20.63;;;9.95;;
59512;SDS011;45330;51.634;5.562;2023-06-10T02:37:51;19.00;;;9.18;;
59512;SDS011;45330;51.634;5.562;2023-06-10T02:40:16;19.15;;;10.10;;
59512;SDS011;45330;51.634;5.562;2023-06-10T02:42:42;21.10;;;10.07;;
59512;SDS011;45330;51.634;5.562;2023-06-10T02:45:07;20.33;;;9.93;;
59512;SDS011;45330;51.634;5.562;2023-06-10T02:47:33;19.00;;;9.70;;
59512;SDS011;45330;51.634;5.562;2023-06-10T02:49:58;20.13;;;9.77;;
59512;SDS011;45330;51.634;5.562;2023-06-10T02:52:24;20.20;;;10.35;;
59512;SDS011;45330;51.634;5.562;2023-06-10T02:54:50;19.02;;;10.02;;
59512;SDS011;45330;51.634;5.562;2023-06-10T02:57:15;18.88;;;9.50;;
59512;SDS011;45330;51.634;5.562;2023-06-10T02:59:40;19.23;;;9.88;;
59512;SDS011;45330;51.634;5.562;2023-06-10T03:02:06;18.45;;;9.98;;
59512;SDS011;45330;51.634;5.562;2023-06-10T03:04:32;20.05;;;9.70;;
59512;SDS011;45330;51.634;5.562;2023-06-10T03:06:58;19.65;;;10.07;;
59512;SDS011;45330;51.634;5.562;2023-06-10T03:09:25;19.70;;;9.85;;
59512;SDS011;45330;51.634;5.562;2023-06-10T03:11:50;21.80;;;10.32;;
59512;SDS011;45330;51.634;5.562;2023-06-10T03:14:16;20.85;;;10.63;;
59512;SDS011;45330;51.634;5.562;2023-06-10T03:16:42;19.80;;;10.20;;
59512;SDS011;45330;51.634;5.562;2023-06-10T03:19:07;19.80;;;10.55;;
59512;SDS011;45330;51.634;5.562;2023-06-10T03:21:34;21.33;;;10.32;;
59512;SDS011;45330;51.634;5.562;2023-06-10T03:24:00;21.73;;;9.63;;
59512;SDS011;45330;51.634;5.562;2023-06-10T03:26:26;20.95;;;10.43;;
59512;SDS011;45330;51.634;5.562;2023-06-10T03:28:52;19.42;;;9.90;;
59512;SDS011;45330;51.634;5.562;2023-06-10T03:31:18;22.65;;;10.18;;
59512;SDS011;45330;51.634;5.562;2023-06-10T03:33:43;20.08;;;10.40;;
59512;SDS011;45330;51.634;5.562;2023-06-10T03:36:09;19.08;;;9.90;;
59512;SDS011;45330;51.634;5.562;2023-06-10T03:38:34;21.13;;;10.65;;
59512;SDS011;45330;51.634;5.562;2023-06-10T03:41:00;18.55;;;9.93;;
59512;SDS011;45330;51.634;5.562;2023-06-10T03:43:26;20.23;;;10.18;;
59512;SDS011;45330;51.634;5.562;2023-06-10T03:45:52;21.80;;;10.50;;
59512;SDS011;45330;51.634;5.562;2023-06-10T03:48:18;20.58;;;9.60;;
59512;SDS011;45330;51.634;5.562;2023-06-10T03:50:43;19.40;;;9.70;;
59512;SDS011;45330;51.634;5.562;2023-06-10T03:53:08;19.67;;;9.75;;
59512;SDS011;45330;51.634;5.562;2023-06-10T03:55:34;20.55;;;10.13;;
59512;SDS011;45330;51.634;5.562;2023-06-10T03:57:59;18.92;;;9.30;;
59512;SDS011;45330;51.634;5.562;2023-06-10T04:00:25;19.40;;;9.27;;
59512;SDS011;45330;51.634;5.562;2023-06-10T04:02:50;17.98;;;9.10;;
59512;SDS011;45330;51.634;5.562;2023-06-10T04:05:17;18.90;;;9.27;;
59512;SDS011;45330;51.634;5.562;2023-06-10T04:07:44;20.42;;;9.80;;
59512;SDS011;45330;51.634;5.562;2023-06-10T04:10:12;18.88;;;9.05;;
59512;SDS011;45330;51.634;5.562;2023-06-10T04:12:38;19.67;;;9.20;;
59512;SDS011;45330;51.634;5.562;2023-06-10T04:15:04;20.30;;;9.57;;
59512;SDS011;45330;51.634;5.562;2023-06-10T04:17:30;19.13;;;9.18;;
59512;SDS011;45330;51.634;5.562;2023-06-10T04:19:55;19.60;;;9.40;;
59512;SDS011;45330;51.634;5.562;2023-06-10T04:22:21;20.30;;;9.07;;
59512;SDS011;45330;51.634;5.562;2023-06-10T04:24:47;22.60;;;9.25;;
59512;SDS011;45330;51.634;5.562;2023-06-10T04:27:13;20.98;;;9.40;;
59512;SDS011;45330;51.634;5.562;2023-06-10T04:29:38;18.13;;;8.55;;
59512;SDS011;45330;51.634;5.562;2023-06-10T04:32:04;20.02;;;9.20;;
59512;SDS011;45330;51.634;5.562;2023-06-10T04:34:32;21.23;;;8.88;;
59512;SDS011;45330;51.634;5.562;2023-06-10T04:37:01;18.55;;;8.40;;
59512;SDS011;45330;51.634;5.562;2023-06-10T04:39:26;18.95;;;9.15;;
59512;SDS011;45330;51.634;5.562;2023-06-10T04:41:52;18.15;;;8.20;;
59512;SDS011;45330;51.634;5.562;2023-06-10T04:44:17;18.27;;;8.57;;
59512;SDS011;45330;51.634;5.562;2023-06-10T04:46:43;17.52;;;8.18;;
59512;SDS011;45330;51.634;5.562;2023-06-10T04:49:09;19.15;;;8.18;;
59512;SDS011;45330;51.634;5.562;2023-06-10T04:51:34;17.92;;;8.02;;
59512;SDS011;45330;51.634;5.562;2023-06-10T04:54:00;18.40;;;8.05;;
59512;SDS011;45330;51.634;5.562;2023-06-10T04:56:28;17.35;;;7.20;;
59512;SDS011;45330;51.634;5.562;2023-06-10T04:58:55;18.13;;;7.60;;
59512;SDS011;45330;51.634;5.562;2023-06-10T05:01:23;17.67;;;7.60;;
59512;SDS011;45330;51.634;5.562;2023-06-10T05:03:49;18.75;;;8.23;;
59512;SDS011;45330;51.634;5.562;2023-06-10T05:06:14;17.13;;;7.50;;
59512;SDS011;45330;51.634;5.562;2023-06-10T05:08:40;16.75;;;7.53;;
59512;SDS011;45330;51.634;5.562;2023-06-10T05:11:05;16.48;;;7.43;;
59512;SDS011;45330;51.634;5.562;2023-06-10T05:13:31;16.77;;;7.20;;
59512;SDS011;45330;51.634;5.562;2023-06-10T05:15:56;17.63;;;7.68;;
59512;SDS011;45330;51.634;5.562;2023-06-10T05:18:22;16.95;;;7.57;;
59512;SDS011;45330;51.634;5.562;2023-06-10T05:20:47;16.85;;;7.70;;
59512;SDS011;45330;51.634;5.562;2023-06-10T05:23:13;19.15;;;7.68;;
59512;SDS011;45330;51.634;5.562;2023-06-10T05:25:38;16.50;;;7.43;;
59512;SDS011;45330;51.634;5.562;2023-06-10T05:28:03;17.08;;;7.32;;
59512;SDS011;45330;51.634;5.562;2023-06-10T05:30:29;18.48;;;7.43;;
59512;SDS011;45330;51.634;5.562;2023-06-10T05:32:54;18.90;;;7.97;;
59512;SDS011;45330;51.634;5.562;2023-06-10T05:35:21;17.98;;;6.88;;
59512;SDS011;45330;51.634;5.562;2023-06-10T05:37:46;16.33;;;7.22;;
59512;SDS011;45330;51.634;5.562;2023-06-10T05:40:12;17.52;;;7.22;;
59512;SDS011;45330;51.634;5.562;2023-06-10T05:42:37;19.42;;;7.95;;
59512;SDS011;45330;51.634;5.562;2023-06-10T05:45:03;17.05;;;7.53;;
59512;SDS011;45330;51.634;5.562;2023-06-10T05:47:31;19.67;;;7.70;;
59512;SDS011;45330;51.634;5.562;2023-06-10T05:49:56;17.52;;;7.07;;
59512;SDS011;45330;51.634;5.562;2023-06-10T05:52:22;18.67;;;7.25;;
59512;SDS011;45330;51.634;5.562;2023-06-10T05:54:48;16.05;;;7.30;;
59512;SDS011;45330;51.634;5.562;2023-06-10T05:57:14;19.90;;;7.03;;
59512;SDS011;45330;51.634;5.562;2023-06-10T05:59:40;20.05;;;7.32;;
59512;SDS011;45330;51.634;5.562;2023-06-10T06:02:05;17.42;;;7.13;;
59512;SDS011;45330;51.634;5.562;2023-06-10T06:04:31;19.92;;;7.85;;
59512;SDS011;45330;51.634;5.562;2023-06-10T06:06:57;16.73;;;7.15;;
59512;SDS011;45330;51.634;5.562;2023-06-10T06:09:22;16.23;;;7.00;;
59512;SDS011;45330;51.634;5.562;2023-06-10T06:11:47;17.20;;;7.07;;
59512;SDS011;45330;51.634;5.562;2023-06-10T06:14:13;16.88;;;7.13;;
59512;SDS011;45330;51.634;5.562;2023-06-10T06:16:38;17.02;;;7.00;;
59512;SDS011;45330;51.634;5.562;2023-06-10T06:19:04;18.73;;;7.43;;
59512;SDS011;45330;51.634;5.562;2023-06-10T06:21:29;16.25;;;6.80;;
59512;SDS011;45330;51.634;5.562;2023-06-10T06:23:54;20.48;;;7.78;;
59512;SDS011;45330;51.634;5.562;2023-06-10T06:26:20;17.98;;;7.03;;
59512;SDS011;45330;51.634;5.562;2023-06-10T06:28:45;18.13;;;7.15;;
59512;SDS011;45330;51.634;5.562;2023-06-10T06:31:11;16.17;;;6.95;;
59512;SDS011;45330;51.634;5.562;2023-06-10T06:33:36;14.38;;;6.45;;
59512;SDS011;45330;51.634;5.562;2023-06-10T06:36:02;17.17;;;6.70;;
59512;SDS011;45330;51.634;5.562;2023-06-10T06:38:28;16.65;;;6.40;;
59512;SDS011;45330;51.634;5.562;2023-06-10T06:40:53;15.82;;;6.90;;
59512;SDS011;45330;51.634;5.562;2023-06-10T06:43:19;15.73;;;6.70;;
59512;SDS011;45330;51.634;5.562;2023-06-10T06:45:44;18.98;;;6.60;;
59512;SDS011;45330;51.634;5.562;2023-06-10T06:48:12;16.10;;;6.50;;
59512;SDS011;45330;51.634;5.562;2023-06-10T06:50:38;18.67;;;6.60;;
59512;SDS011;45330;51.634;5.562;2023-06-10T06:53:04;14.55;;;6.25;;
59512;SDS011;45330;51.634;5.562;2023-06-10T06:55:29;18.10;;;6.57;;
59512;SDS011;45330;51.634;5.562;2023-06-10T06:57:55;19.52;;;6.65;;
59512;SDS011;45330;51.634;5.562;2023-06-10T07:00:20;17.20;;;6.60;;
59512;SDS011;45330;51.634;5.562;2023-06-10T07:02:46;17.13;;;6.55;;
59512;SDS011;45330;51.634;5.562;2023-06-10T07:05:12;15.65;;;6.30;;
59512;SDS011;45330;51.634;5.562;2023-06-10T07:07:37;17.88;;;6.68;;
59512;SDS011;45330;51.634;5.562;2023-06-10T07:10:03;15.88;;;6.75;;
59512;SDS011;45330;51.634;5.562;2023-06-10T07:12:28;16.60;;;6.55;;
59512;SDS011;45330;51.634;5.562;2023-06-10T07:14:54;15.90;;;6.45;;
59512;SDS011;45330;51.634;5.562;2023-06-10T07:17:19;17.48;;;6.35;;
59512;SDS011;45330;51.634;5.562;2023-06-10T07:19:45;17.55;;;6.82;;
59512;SDS011;45330;51.634;5.562;2023-06-10T07:22:11;18.10;;;6.80;;
59512;SDS011;45330;51.634;5.562;2023-06-10T07:24:36;16.42;;;6.32;;
59512;SDS011;45330;51.634;5.562;2023-06-10T07:27:01;17.27;;;7.13;;
59512;SDS011;45330;51.634;5.562;2023-06-10T07:29:27;15.95;;;6.75;;
59512;SDS011;45330;51.634;5.562;2023-06-10T07:31:52;18.10;;;7.00;;
59512;SDS011;45330;51.634;5.562;2023-06-10T07:34:18;17.92;;;6.57;;
59512;SDS011;45330;51.634;5.562;2023-06-10T07:36:44;16.92;;;6.50;;
59512;SDS011;45330;51.634;5.562;2023-06-10T07:39:10;14.98;;;6.50;;
59512;SDS011;45330;51.634;5.562;2023-06-10T07:41:35;16.77;;;6.70;;
59512;SDS011;45330;51.634;5.562;2023-06-10T07:44:00;15.95;;;6.30;;
59512;SDS011;45330;51.634;5.562;2023-06-10T07:46:26;14.10;;;5.97;;
59512;SDS011;45330;51.634;5.562;2023-06-10T07:48:53;17.08;;;6.57;;
59512;SDS011;45330;51.634;5.562;2023-06-10T07:51:19;15.23;;;6.03;;
59512;SDS011;45330;51.634;5.562;2023-06-10T07:53:44;15.95;;;5.95;;
59512;SDS011;45330;51.634;5.562;2023-06-10T07:56:09;15.73;;;6.28;;
59512;SDS011;45330;51.634;5.562;2023-06-10T07:58:35;16.67;;;6.53;;
59512;SDS011;45330;51.634;5.562;2023-06-10T08:01:00;13.85;;;5.65;;
59512;SDS011;45330;51.634;5.562;2023-06-10T08:03:26;13.60;;;5.97;;
59512;SDS011;45330;51.634;5.562;2023-06-10T08:05:51;15.75;;;6.20;;
59512;SDS011;45330;51.634;5.562;2023-06-10T08:08:16;14.68;;;5.72;;
59512;SDS011;45330;51.634;5.562;2023-06-10T08:10:42;15.60;;;6.05;;
59512;SDS011;45330;51.634;5.562;2023-06-10T08:13:07;16.92;;;6.00;;
59512;SDS011;45330;51.634;5.562;2023-06-10T08:15:33;16.02;;;6.05;;
59512;SDS011;45330;51.634;5.562;2023-06-10T08:17:59;14.70;;;5.90;;
59512;SDS011;45330;51.634;5.562;2023-06-10T08:20:24;16.70;;;5.50;;
59512;SDS011;45330;51.634;5.562;2023-06-10T08:22:50;16.35;;;6.07;;
59512;SDS011;45330;51.634;5.562;2023-06-10T08:25:15;14.90;;;6.00;;
59512;SDS011;45330;51.634;5.562;2023-06-10T08:27:41;15.82;;;6.15;;
59512;SDS011;45330;51.634;5.562;2023-06-10T08:30:06;15.25;;;5.60;;
59512;SDS011;45330;51.634;5.562;2023-06-10T08:32:33;14.15;;;5.60;;
59512;SDS011;45330;51.634;5.562;2023-06-10T08:34:58;15.00;;;5.97;;
59512;SDS011;45330;51.634;5.562;2023-06-10T08:37:24;14.88;;;5.63;;
59512;SDS011;45330;51.634;5.562;2023-06-10T08:39:49;14.48;;;5.85;;
59512;SDS011;45330;51.634;5.562;2023-06-10T08:42:21;13.95;;;5.70;;
59512;SDS011;45330;51.634;5.562;2023-06-10T08:44:48;14.15;;;6.05;;
59512;SDS011;45330;51.634;5.562;2023-06-10T08:47:18;16.02;;;5.60;;
59512;SDS011;45330;51.634;5.562;2023-06-10T08:49:46;17.08;;;5.80;;
59512;SDS011;45330;51.634;5.562;2023-06-10T08:52:19;15.00;;;5.43;;
59512;SDS011;45330;51.634;5.562;2023-06-10T08:54:49;11.27;;;5.22;;
59512;SDS011;45330;51.634;5.562;2023-06-10T08:57:19;13.88;;;5.80;;
59512;SDS011;45330;51.634;5.562;2023-06-10T08:59:46;14.50;;;5.55;;
59512;SDS011;45330;51.634;5.562;2023-06-10T09:02:13;12.18;;;5.10;;
59512;SDS011;45330;51.634;5.562;2023-06-10T09:04:41;10.90;;;5.22;;
59512;SDS011;45330;51.634;5.562;2023-06-10T09:07:09;17.52;;;5.88;;
59512;SDS011;45330;51.634;5.562;2023-06-10T09:09:35;14.90;;;5.63;;
59512;SDS011;45330;51.634;5.562;2023-06-10T09:12:01;16.80;;;5.70;;
59512;SDS011;45330;51.634;5.562;2023-06-10T09:14:27;12.90;;;5.68;;
59512;SDS011;45330;51.634;5.562;2023-06-10T09:16:52;13.45;;;5.43;;
59512;SDS011;45330;51.634;5.562;2023-06-10T09:19:21;16.17;;;6.10;;
59512;SDS011;45330;51.634;5.562;2023-06-10T09:21:50;16.73;;;6.13;;
59512;SDS011;45330;51.634;5.562;2023-06-10T09:24:15;13.20;;;5.15;;
59512;SDS011;45330;51.634;5.562;2023-06-10T09:26:41;14.70;;;5.93;;
59512;SDS011;45330;51.634;5.562;2023-06-10T09:29:08;12.85;;;5.30;;
59512;SDS011;45330;51.634;5.562;2023-06-10T09:31:34;14.77;;;5.90;;
59512;SDS011;45330;51.634;5.562;2023-06-10T09:34:11;11.77;;;5.07;;
59512;SDS011;45330;51.634;5.562;2023-06-10T09:36:40;14.77;;;5.85;;
59512;SDS011;45330;51.634;5.562;2023-06-10T09:39:12;14.15;;;5.65;;
59512;SDS011;45330;51.634;5.562;2023-06-10T09:41:43;13.77;;;5.35;;
59512;SDS011;45330;51.634;5.562;2023-06-10T09:44:13;15.32;;;5.93;;
59512;SDS011;45330;51.634;5.562;2023-06-10T09:46:40;16.45;;;5.65;;
59512;SDS011;45330;51.634;5.562;2023-06-10T09:49:06;14.00;;;5.72;;
59512;SDS011;45330;51.634;5.562;2023-06-10T09:51:31;14.98;;;5.65;;
59512;SDS011;45330;51.634;5.562;2023-06-10T09:53:57;13.70;;;5.43;;
59512;SDS011;45330;51.634;5.562;2023-06-10T09:56:32;14.60;;;5.72;;
59512;SDS011;45330;51.634;5.562;2023-06-10T09:59:01;16.23;;;5.88;;
59512;SDS011;45330;51.634;5.562;2023-06-10T10:01:28;16.70;;;5.82;;
59512;SDS011;45330;51.634;5.562;2023-06-10T10:03:55;14.30;;;5.70;;
59512;SDS011;45330;51.634;5.562;2023-06-10T10:06:21;14.73;;;5.57;;
59512;SDS011;45330;51.634;5.562;2023-06-10T10:08:47;15.23;;;5.88;;
59512;SDS011;45330;51.634;5.562;2023-06-10T10:11:14;14.40;;;5.70;;
59512;SDS011;45330;51.634;5.562;2023-06-10T10:13:42;12.18;;;5.35;;
59512;SDS011;45330;51.634;5.562;2023-06-10T10:16:17;16.42;;;5.93;;
59512;SDS011;45330;51.634;5.562;2023-06-10T10:18:50;15.43;;;6.03;;
59512;SDS011;45330;51.634;5.562;2023-06-10T10:21:21;13.07;;;5.07;;
59512;SDS011;45330;51.634;5.562;2023-06-10T10:26:27;15.85;;;5.75;;
59512;SDS011;45330;51.634;5.562;2023-06-10T10:28:58;15.35;;;5.60;;
59512;SDS011;45330;51.634;5.562;2023-06-10T10:31:32;12.93;;;5.70;;
59512;SDS011;45330;51.634;5.562;2023-06-10T10:34:00;16.00;;;5.57;;
59512;SDS011;45330;51.634;5.562;2023-06-10T10:36:29;13.68;;;6.00;;
59512;SDS011;45330;51.634;5.562;2023-06-10T10:38:56;14.88;;;5.20;;
59512;SDS011;45330;51.634;5.562;2023-06-10T10:41:23;17.75;;;5.68;;
59512;SDS011;45330;51.634;5.562;2023-06-10T10:43:51;20.80;;;6.10;;
59512;SDS011;45330;51.634;5.562;2023-06-10T10:46:17;14.20;;;5.40;;
59512;SDS011;45330;51.634;5.562;2023-06-10T10:48:42;11.07;;;5.60;;
59512;SDS011;45330;51.634;5.562;2023-06-10T10:51:09;15.30;;;5.90;;
59512;SDS011;45330;51.634;5.562;2023-06-10T10:53:38;14.50;;;5.68;;
59512;SDS011;45330;51.634;5.562;2023-06-10T10:56:07;14.57;;;5.65;;
59512;SDS011;45330;51.634;5.562;2023-06-10T10:58:40;13.65;;;5.60;;
59512;SDS011;45330;51.634;5.562;2023-06-10T11:01:12;14.00;;;5.90;;
59512;SDS011;45330;51.634;5.562;2023-06-10T11:03:45;13.70;;;5.50;;
59512;SDS011;45330;51.634;5.562;2023-06-10T11:06:15;13.57;;;5.25;;
59512;SDS011;45330;51.634;5.562;2023-06-10T11:11:26;15.88;;;5.47;;
59512;SDS011;45330;51.634;5.562;2023-06-10T11:16:28;15.20;;;5.30;;
59512;SDS011;45330;51.634;5.562;2023-06-10T11:18:54;15.63;;;6.35;;
59512;SDS011;45330;51.634;5.562;2023-06-10T11:21:20;15.50;;;5.30;;
59512;SDS011;45330;51.634;5.562;2023-06-10T11:23:45;15.43;;;5.70;;
59512;SDS011;45330;51.634;5.562;2023-06-10T11:26:21;15.23;;;5.55;;
59512;SDS011;45330;51.634;5.562;2023-06-10T11:31:28;11.52;;;5.30;;
59512;SDS011;45330;51.634;5.562;2023-06-10T11:33:58;13.23;;;5.43;;
59512;SDS011;45330;51.634;5.562;2023-06-10T11:36:25;12.95;;;5.53;;
59512;SDS011;45330;51.634;5.562;2023-06-10T11:39:01;12.50;;;5.43;;
59512;SDS011;45330;51.634;5.562;2023-06-10T11:41:28;13.07;;;5.53;;
59512;SDS011;45330;51.634;5.562;2023-06-10T11:43:56;11.80;;;5.07;;
59512;SDS011;45330;51.634;5.562;2023-06-10T11:46:25;13.57;;;5.43;;
59512;SDS011;45330;51.634;5.562;2023-06-10T11:48:54;13.48;;;5.32;;
59512;SDS011;45330;51.634;5.562;2023-06-10T11:51:21;11.40;;;5.10;;
59512;SDS011;45330;51.634;5.562;2023-06-10T11:53:50;13.10;;;5.15;;
59512;SDS011;45330;51.634;5.562;2023-06-10T11:56:29;11.70;;;5.28;;
59512;SDS011;45330;51.634;5.562;2023-06-10T11:59:05;10.18;;;4.82;;
59512;SDS011;45330;51.634;5.562;2023-06-10T12:01:41;12.55;;;5.20;;
59512;SDS011;45330;51.634;5.562;2023-06-10T12:04:09;13.15;;;5.20;;
59512;SDS011;45330;51.634;5.562;2023-06-10T12:06:40;13.32;;;5.07;;
59512;SDS011;45330;51.634;5.562;2023-06-10T12:09:13;12.93;;;5.30;;
59512;SDS011;45330;51.634;5.562;2023-06-10T12:11:43;12.63;;;5.47;;
59512;SDS011;45330;51.634;5.562;2023-06-10T12:14:09;11.13;;;4.90;;
59512;SDS011;45330;51.634;5.562;2023-06-10T12:16:34;12.07;;;5.07;;
59512;SDS011;45330;51.634;5.562;2023-06-10T12:19:03;12.25;;;5.32;;
59512;SDS011;45330;51.634;5.562;2023-06-10T12:21:31;14.40;;;5.47;;
59512;SDS011;45330;51.634;5.562;2023-06-10T12:24:07;12.65;;;5.45;;
59512;SDS011;45330;51.634;5.562;2023-06-10T12:26:38;13.23;;;5.22;;
59512;SDS011;45330;51.634;5.562;2023-06-10T12:29:23;13.70;;;5.50;;
59512;SDS011;45330;51.634;5.562;2023-06-10T12:31:56;11.35;;;5.30;;
59512;SDS011;45330;51.634;5.562;2023-06-10T12:36:55;13.80;;;5.40;;
59512;SDS011;45330;51.634;5.562;2023-06-10T12:39:21;12.27;;;5.05;;
59512;SDS011;45330;51.634;5.562;2023-06-10T12:41:47;12.18;;;5.10;;
59512;SDS011;45330;51.634;5.562;2023-06-10T12:44:13;12.90;;;5.20;;
59512;SDS011;45330;51.634;5.562;2023-06-10T12:46:39;11.85;;;4.97;;
59512;SDS011;45330;51.634;5.562;2023-06-10T12:49:04;11.32;;;5.15;;
59512;SDS011;45330;51.634;5.562;2023-06-10T12:51:30;11.73;;;5.05;;
59512;SDS011;45330;51.634;5.562;2023-06-10T12:53:55;10.95;;;5.15;;
59512;SDS011;45330;51.634;5.562;2023-06-10T12:56:20;13.70;;;5.20;;
59512;SDS011;45330;51.634;5.562;2023-06-10T12:58:47;16.08;;;5.20;;
59512;SDS011;45330;51.634;5.562;2023-06-10T13:01:12;12.52;;;4.90;;
59512;SDS011;45330;51.634;5.562;2023-06-10T13:03:38;12.90;;;5.03;;
59512;SDS011;45330;51.634;5.562;2023-06-10T13:06:05;10.90;;;4.55;;
59512;SDS011;45330;51.634;5.562;2023-06-10T13:08:31;11.18;;;5.18;;
59512;SDS011;45330;51.634;5.562;2023-06-10T13:10:57;10.63;;;4.95;;
59512;SDS011;45330;51.634;5.562;2023-06-10T13:13:22;10.05;;;4.80;;
59512;SDS011;45330;51.634;5.562;2023-06-10T13:15:48;11.88;;;4.95;;
59512;SDS011;45330;51.634;5.562;2023-06-10T13:18:15;13.18;;;5.00;;
59512;SDS011;45330;51.634;5.562;2023-06-10T13:20:43;13.50;;;5.43;;
59512;SDS011;45330;51.634;5.562;2023-06-10T13:23:08;9.45;;;5.07;;
59512;SDS011;45330;51.634;5.562;2023-06-10T13:25:34;10.93;;;4.80;;
59512;SDS011;45330;51.634;5.562;2023-06-10T13:27:59;13.70;;;5.60;;
59512;SDS011;45330;51.634;5.562;2023-06-10T13:30:25;11.55;;;4.75;;
59512;SDS011;45330;51.634;5.562;2023-06-10T13:32:51;11.18;;;4.95;;
59512;SDS011;45330;51.634;5.562;2023-06-10T13:35:16;9.70;;;4.70;;
59512;SDS011;45330;51.634;5.562;2023-06-10T13:37:42;10.50;;;5.03;;
59512;SDS011;45330;51.634;5.562;2023-06-10T13:40:07;11.93;;;5.03;;
59512;SDS011;45330;51.634;5.562;2023-06-10T13:42:34;13.02;;;4.80;;
59512;SDS011;45330;51.634;5.562;2023-06-10T13:45:01;11.88;;;5.00;;
59512;SDS011;45330;51.634;5.562;2023-06-10T13:47:27;14.68;;;4.68;;
59512;SDS011;45330;51.634;5.562;2023-06-10T13:49:52;13.13;;;5.00;;
59512;SDS011;45330;51.634;5.562;2023-06-10T13:52:17;13.00;;;4.95;;
59512;SDS011;45330;51.634;5.562;2023-06-10T13:54:43;11.95;;;5.35;;
59512;SDS011;45330;51.634;5.562;2023-06-10T13:57:08;11.32;;;4.88;;
59512;SDS011;45330;51.634;5.562;2023-06-10T13:59:35;10.45;;;4.57;;
59512;SDS011;45330;51.634;5.562;2023-06-10T14:02:00;11.30;;;4.88;;
59512;SDS011;45330;51.634;5.562;2023-06-10T14:04:26;14.50;;;5.35;;
59512;SDS011;45330;51.634;5.562;2023-06-10T14:06:52;10.10;;;4.88;;
59512;SDS011;45330;51.634;5.562;2023-06-10T14:09:17;12.73;;;4.97;;
59512;SDS011;45330;51.634;5.562;2023-06-10T14:11:42;11.13;;;4.78;;
59512;SDS011;45330;51.634;5.562;2023-06-10T14:14:08;12.63;;;5.20;;
59512;SDS011;45330;51.634;5.562;2023-06-10T14:16:35;10.60;;;4.90;;
59512;SDS011;45330;51.634;5.562;2023-06-10T14:19:00;13.75;;;5.05;;
59512;SDS011;45330;51.634;5.562;2023-06-10T14:21:26;11.98;;;4.72;;
59512;SDS011;45330;51.634;5.562;2023-06-10T14:23:51;10.05;;;4.75;;
59512;SDS011;45330;51.634;5.562;2023-06-10T14:26:18;13.38;;;4.95;;
59512;SDS011;45330;51.634;5.562;2023-06-10T14:28:44;13.10;;;4.80;;
59512;SDS011;45330;51.634;5.562;2023-06-10T14:31:10;10.60;;;4.85;;
59512;SDS011;45330;51.634;5.562;2023-06-10T14:33:35;9.18;;;4.18;;
59512;SDS011;45330;51.634;5.562;2023-06-10T14:36:01;9.40;;;4.82;;
59512;SDS011;45330;51.634;5.562;2023-06-10T14:38:26;10.13;;;4.82;;
59512;SDS011;45330;51.634;5.562;2023-06-10T14:40:52;11.90;;;5.00;;
59512;SDS011;45330;51.634;5.562;2023-06-10T14:43:18;11.13;;;5.30;;